sensor_id;sensor_type;location;lat;lon;timestamp;P1;durP1;ratioP1;P2;durP2;ratioP2
60819;SDS011;46641;48.904;9.126;2024-02-14T00:01:59;4.97;;;3.95;;
60819;SDS011;46641;48.904;9.126;2024-02-14T00:06:49;4.45;;;4.05;;
60819;SDS011;46641;48.904;9.126;2024-02-14T00:11:40;5.85;;;4.40;;
60819;SDS011;46641;48.904;9.126;2024-02-14T00:16:30;4.80;;;3.88;;
60819;SDS011;46641;48.904;9.126;2024-02-14T00:21:20;4.68;;;4.05;;
60819;SDS011;46641;48.904;9.126;2024-02-14T00:26:10;5.93;;;4.63;;
60819;SDS011;46641;48.904;9.126;2024-02-14T00:31:01;6.55;;;4.35;;
60819;SDS011;46641;48.904;9.126;2024-02-14T00:35:51;5.37;;;4.03;;
60819;SDS011;46641;48.904;9.126;2024-02-14T00:40:41;5.80;;;4.27;;
60819;SDS011;46641;48.904;9.126;2024-02-14T00:45:32;7.35;;;4.53;;
60819;SDS011;46641;48.904;9.126;2024-02-14T00:50:22;5.13;;;3.90;;
60819;SDS011;46641;48.904;9.126;2024-02-14T00:55:12;4.20;;;3.05;;
60819;SDS011;46641;48.904;9.126;2024-02-14T01:00:03;3.93;;;3.37;;
60819;SDS011;46641;48.904;9.126;2024-02-14T01:04:55;4.33;;;3.60;;
60819;SDS011;46641;48.904;9.126;2024-02-14T01:09:46;5.20;;;3.42;;
60819;SDS011;46641;48.904;9.126;2024-02-14T01:14:36;4.10;;;3.30;;
60819;SDS011;46641;48.904;9.126;2024-02-14T01:19:27;4.37;;;3.27;;
60819;SDS011;46641;48.904;9.126;2024-02-14T01:24:19;4.43;;;3.63;;
60819;SDS011;46641;48.904;9.126;2024-02-14T01:29:09;5.15;;;3.70;;
60819;SDS011;46641;48.904;9.126;2024-02-14T01:33:59;4.72;;;3.35;;
60819;SDS011;46641;48.904;9.126;2024-02-14T01:38:51;4.83;;;3.53;;
60819;SDS011;46641;48.904;9.126;2024-02-14T01:43:42;5.85;;;3.33;;
60819;SDS011;46641;48.904;9.126;2024-02-14T01:48:33;4.30;;;3.27;;
60819;SDS011;46641;48.904;9.126;2024-02-14T01:53:24;3.90;;;3.30;;
60819;SDS011;46641;48.904;9.126;2024-02-14T01:58:15;6.53;;;3.93;;
60819;SDS011;46641;48.904;9.126;2024-02-14T02:03:05;4.55;;;3.10;;
60819;SDS011;46641;48.904;9.126;2024-02-14T02:07:56;4.20;;;3.80;;
60819;SDS011;46641;48.904;9.126;2024-02-14T02:12:46;7.07;;;4.00;;
60819;SDS011;46641;48.904;9.126;2024-02-14T02:17:37;5.80;;;4.22;;
60819;SDS011;46641;48.904;9.126;2024-02-14T02:22:27;3.85;;;3.45;;
60819;SDS011;46641;48.904;9.126;2024-02-14T02:27:19;4.43;;;3.73;;
60819;SDS011;46641;48.904;9.126;2024-02-14T02:32:11;5.57;;;3.33;;
60819;SDS011;46641;48.904;9.126;2024-02-14T02:37:01;3.33;;;2.87;;
60819;SDS011;46641;48.904;9.126;2024-02-14T02:41:52;3.87;;;3.00;;
60819;SDS011;46641;48.904;9.126;2024-02-14T02:46:45;3.10;;;2.80;;
60819;SDS011;46641;48.904;9.126;2024-02-14T02:51:35;3.63;;;3.20;;
60819;SDS011;46641;48.904;9.126;2024-02-14T02:56:26;5.22;;;3.13;;
60819;SDS011;46641;48.904;9.126;2024-02-14T03:01:17;2.77;;;2.50;;
60819;SDS011;46641;48.904;9.126;2024-02-14T03:06:07;3.70;;;2.65;;
60819;SDS011;46641;48.904;9.126;2024-02-14T03:11:02;4.23;;;2.57;;
60819;SDS011;46641;48.904;9.126;2024-02-14T03:15:54;4.00;;;2.50;;
60819;SDS011;46641;48.904;9.126;2024-02-14T03:20:48;3.20;;;2.63;;
60819;SDS011;46641;48.904;9.126;2024-02-14T03:25:39;5.10;;;2.50;;
60819;SDS011;46641;48.904;9.126;2024-02-14T03:30:30;2.50;;;2.30;;
60819;SDS011;46641;48.904;9.126;2024-02-14T03:35:21;2.73;;;2.40;;
60819;SDS011;46641;48.904;9.126;2024-02-14T03:40:11;2.43;;;2.23;;
60819;SDS011;46641;48.904;9.126;2024-02-14T03:45:02;2.95;;;2.33;;
60819;SDS011;46641;48.904;9.126;2024-02-14T03:49:55;2.53;;;2.33;;
60819;SDS011;46641;48.904;9.126;2024-02-14T03:54:45;2.47;;;2.27;;
60819;SDS011;46641;48.904;9.126;2024-02-14T03:59:36;3.77;;;2.43;;
60819;SDS011;46641;48.904;9.126;2024-02-14T04:04:28;4.73;;;2.40;;
60819;SDS011;46641;48.904;9.126;2024-02-14T04:09:19;3.23;;;2.23;;
60819;SDS011;46641;48.904;9.126;2024-02-14T04:14:09;3.05;;;2.33;;
60819;SDS011;46641;48.904;9.126;2024-02-14T04:18:59;3.13;;;2.00;;
60819;SDS011;46641;48.904;9.126;2024-02-14T04:23:49;3.38;;;2.08;;
60819;SDS011;46641;48.904;9.126;2024-02-14T04:28:40;2.35;;;2.03;;
60819;SDS011;46641;48.904;9.126;2024-02-14T04:33:31;3.50;;;2.27;;
60819;SDS011;46641;48.904;9.126;2024-02-14T04:38:21;4.10;;;2.20;;
60819;SDS011;46641;48.904;9.126;2024-02-14T04:43:11;4.77;;;2.40;;
60819;SDS011;46641;48.904;9.126;2024-02-14T04:48:02;4.27;;;2.60;;
60819;SDS011;46641;48.904;9.126;2024-02-14T04:52:53;2.90;;;1.80;;
60819;SDS011;46641;48.904;9.126;2024-02-14T04:57:43;2.13;;;1.90;;
60819;SDS011;46641;48.904;9.126;2024-02-14T05:02:34;2.27;;;2.00;;
60819;SDS011;46641;48.904;9.126;2024-02-14T05:07:24;3.07;;;2.43;;
60819;SDS011;46641;48.904;9.126;2024-02-14T05:12:14;4.47;;;2.35;;
60819;SDS011;46641;48.904;9.126;2024-02-14T05:17:05;4.75;;;2.28;;
60819;SDS011;46641;48.904;9.126;2024-02-14T05:21:55;2.72;;;2.35;;
60819;SDS011;46641;48.904;9.126;2024-02-14T05:26:45;2.50;;;2.13;;
60819;SDS011;46641;48.904;9.126;2024-02-14T05:31:46;4.10;;;1.90;;
60819;SDS011;46641;48.904;9.126;2024-02-14T05:36:38;3.73;;;2.00;;
60819;SDS011;46641;48.904;9.126;2024-02-14T05:41:28;3.78;;;2.30;;
60819;SDS011;46641;48.904;9.126;2024-02-14T05:46:20;4.60;;;2.23;;
60819;SDS011;46641;48.904;9.126;2024-02-14T05:51:10;2.80;;;1.83;;
60819;SDS011;46641;48.904;9.126;2024-02-14T05:56:01;3.47;;;2.20;;
60819;SDS011;46641;48.904;9.126;2024-02-14T06:00:51;2.88;;;2.25;;
60819;SDS011;46641;48.904;9.126;2024-02-14T06:05:41;3.83;;;1.98;;
60819;SDS011;46641;48.904;9.126;2024-02-14T06:10:31;1.70;;;1.60;;
60819;SDS011;46641;48.904;9.126;2024-02-14T06:15:24;3.43;;;1.93;;
60819;SDS011;46641;48.904;9.126;2024-02-14T06:20:14;3.47;;;3.00;;
60819;SDS011;46641;48.904;9.126;2024-02-14T06:25:04;3.60;;;2.80;;
60819;SDS011;46641;48.904;9.126;2024-02-14T06:29:55;4.00;;;2.77;;
60819;SDS011;46641;48.904;9.126;2024-02-14T06:34:46;6.10;;;3.17;;
60819;SDS011;46641;48.904;9.126;2024-02-14T06:39:37;4.53;;;3.30;;
60819;SDS011;46641;48.904;9.126;2024-02-14T06:44:27;4.93;;;3.15;;
60819;SDS011;46641;48.904;9.126;2024-02-14T06:49:18;4.18;;;3.13;;
60819;SDS011;46641;48.904;9.126;2024-02-14T06:54:08;6.00;;;3.50;;
60819;SDS011;46641;48.904;9.126;2024-02-14T06:58:58;6.97;;;3.57;;
60819;SDS011;46641;48.904;9.126;2024-02-14T07:03:49;4.47;;;3.33;;
60819;SDS011;46641;48.904;9.126;2024-02-14T07:08:41;4.17;;;2.93;;
60819;SDS011;46641;48.904;9.126;2024-02-14T07:13:31;6.57;;;5.97;;
60819;SDS011;46641;48.904;9.126;2024-02-14T07:18:21;6.05;;;3.75;;
60819;SDS011;46641;48.904;9.126;2024-02-14T07:23:11;3.60;;;2.35;;
60819;SDS011;46641;48.904;9.126;2024-02-14T07:28:02;5.07;;;3.20;;
60819;SDS011;46641;48.904;9.126;2024-02-14T07:32:52;10.80;;;8.30;;
60819;SDS011;46641;48.904;9.126;2024-02-14T07:37:42;3.83;;;2.58;;
60819;SDS011;46641;48.904;9.126;2024-02-14T07:42:33;4.97;;;4.40;;
60819;SDS011;46641;48.904;9.126;2024-02-14T07:47:23;4.53;;;4.07;;
60819;SDS011;46641;48.904;9.126;2024-02-14T07:52:13;7.07;;;4.15;;
60819;SDS011;46641;48.904;9.126;2024-02-14T07:57:04;2.20;;;1.88;;
60819;SDS011;46641;48.904;9.126;2024-02-14T08:01:54;3.80;;;1.73;;
60819;SDS011;46641;48.904;9.126;2024-02-14T08:06:45;2.55;;;2.03;;
60819;SDS011;46641;48.904;9.126;2024-02-14T08:11:36;2.90;;;1.80;;
60819;SDS011;46641;48.904;9.126;2024-02-14T08:16:27;2.33;;;1.93;;
60819;SDS011;46641;48.904;9.126;2024-02-14T08:21:17;2.10;;;1.87;;
60819;SDS011;46641;48.904;9.126;2024-02-14T08:26:07;3.10;;;2.27;;
60819;SDS011;46641;48.904;9.126;2024-02-14T08:31:00;2.53;;;1.73;;
60819;SDS011;46641;48.904;9.126;2024-02-14T08:35:50;2.22;;;2.03;;
60819;SDS011;46641;48.904;9.126;2024-02-14T08:40:40;3.88;;;1.67;;
60819;SDS011;46641;48.904;9.126;2024-02-14T08:45:31;2.13;;;1.77;;
60819;SDS011;46641;48.904;9.126;2024-02-14T08:50:21;2.13;;;1.70;;
60819;SDS011;46641;48.904;9.126;2024-02-14T08:55:11;3.17;;;2.00;;
60819;SDS011;46641;48.904;9.126;2024-02-14T09:00:07;2.40;;;2.10;;
60819;SDS011;46641;48.904;9.126;2024-02-14T09:04:58;1.93;;;1.73;;
60819;SDS011;46641;48.904;9.126;2024-02-14T09:09:48;5.53;;;4.65;;
60819;SDS011;46641;48.904;9.126;2024-02-14T09:14:39;3.13;;;2.03;;
60819;SDS011;46641;48.904;9.126;2024-02-14T09:19:29;2.40;;;2.20;;
60819;SDS011;46641;48.904;9.126;2024-02-14T09:24:19;5.23;;;4.47;;
60819;SDS011;46641;48.904;9.126;2024-02-14T09:29:10;3.47;;;3.17;;
60819;SDS011;46641;48.904;9.126;2024-02-14T09:34:01;2.43;;;2.13;;
60819;SDS011;46641;48.904;9.126;2024-02-14T09:38:51;3.63;;;2.63;;
60819;SDS011;46641;48.904;9.126;2024-02-14T09:43:45;2.43;;;2.13;;
60819;SDS011;46641;48.904;9.126;2024-02-14T09:48:35;2.73;;;2.00;;
60819;SDS011;46641;48.904;9.126;2024-02-14T09:53:27;1.97;;;1.50;;
60819;SDS011;46641;48.904;9.126;2024-02-14T09:58:19;3.07;;;1.70;;
60819;SDS011;46641;48.904;9.126;2024-02-14T10:03:10;3.23;;;1.63;;
60819;SDS011;46641;48.904;9.126;2024-02-14T10:08:01;2.17;;;1.50;;
60819;SDS011;46641;48.904;9.126;2024-02-14T10:12:51;2.07;;;1.57;;
60819;SDS011;46641;48.904;9.126;2024-02-14T10:17:42;1.47;;;1.30;;
60819;SDS011;46641;48.904;9.126;2024-02-14T10:22:36;1.93;;;1.70;;
60819;SDS011;46641;48.904;9.126;2024-02-14T10:27:27;1.50;;;1.40;;
60819;SDS011;46641;48.904;9.126;2024-02-14T10:32:18;2.20;;;2.00;;
60819;SDS011;46641;48.904;9.126;2024-02-14T10:37:08;2.20;;;1.47;;
60819;SDS011;46641;48.904;9.126;2024-02-14T10:42:00;1.53;;;1.43;;
60819;SDS011;46641;48.904;9.126;2024-02-14T10:46:51;1.23;;;1.13;;
60819;SDS011;46641;48.904;9.126;2024-02-14T10:51:44;2.00;;;1.50;;
60819;SDS011;46641;48.904;9.126;2024-02-14T10:56:39;3.30;;;1.43;;
60819;SDS011;46641;48.904;9.126;2024-02-14T11:01:34;2.20;;;1.40;;
60819;SDS011;46641;48.904;9.126;2024-02-14T11:06:26;2.20;;;1.70;;
60819;SDS011;46641;48.904;9.126;2024-02-14T11:11:16;1.77;;;1.40;;
60819;SDS011;46641;48.904;9.126;2024-02-14T11:16:08;1.90;;;1.27;;
60819;SDS011;46641;48.904;9.126;2024-02-14T11:20:59;2.70;;;1.47;;
60819;SDS011;46641;48.904;9.126;2024-02-14T11:25:59;2.63;;;1.30;;
60819;SDS011;46641;48.904;9.126;2024-02-14T11:30:51;1.50;;;1.40;;
60819;SDS011;46641;48.904;9.126;2024-02-14T11:35:42;1.80;;;1.37;;
60819;SDS011;46641;48.904;9.126;2024-02-14T11:40:32;3.30;;;1.60;;
60819;SDS011;46641;48.904;9.126;2024-02-14T11:45:23;3.20;;;1.67;;
60819;SDS011;46641;48.904;9.126;2024-02-14T11:50:13;1.48;;;1.38;;
60819;SDS011;46641;48.904;9.126;2024-02-14T11:55:03;2.90;;;1.63;;
60819;SDS011;46641;48.904;9.126;2024-02-14T11:59:55;3.47;;;2.10;;
60819;SDS011;46641;48.904;9.126;2024-02-14T12:04:47;3.10;;;1.93;;
60819;SDS011;46641;48.904;9.126;2024-02-14T12:09:40;2.70;;;1.60;;
60819;SDS011;46641;48.904;9.126;2024-02-14T12:14:32;2.70;;;1.70;;
60819;SDS011;46641;48.904;9.126;2024-02-14T12:19:22;1.83;;;1.67;;
60819;SDS011;46641;48.904;9.126;2024-02-14T12:24:13;2.60;;;1.53;;
60819;SDS011;46641;48.904;9.126;2024-02-14T12:29:04;2.30;;;1.53;;
60819;SDS011;46641;48.904;9.126;2024-02-14T12:33:57;2.90;;;1.60;;
60819;SDS011;46641;48.904;9.126;2024-02-14T12:38:49;1.33;;;1.20;;
60819;SDS011;46641;48.904;9.126;2024-02-14T12:43:39;0.90;;;0.70;;
60819;SDS011;46641;48.904;9.126;2024-02-14T12:48:30;1.23;;;0.50;;
60819;SDS011;46641;48.904;9.126;2024-02-14T12:53:20;0.50;;;0.40;;
60819;SDS011;46641;48.904;9.126;2024-02-14T12:58:10;0.97;;;0.50;;
60819;SDS011;46641;48.904;9.126;2024-02-14T13:03:01;1.07;;;0.47;;
60819;SDS011;46641;48.904;9.126;2024-02-14T13:07:51;0.82;;;0.68;;
60819;SDS011;46641;48.904;9.126;2024-02-14T13:12:41;1.25;;;0.60;;
60819;SDS011;46641;48.904;9.126;2024-02-14T13:17:33;0.90;;;0.70;;
60819;SDS011;46641;48.904;9.126;2024-02-14T13:22:24;0.50;;;0.50;;
60819;SDS011;46641;48.904;9.126;2024-02-14T13:27:14;0.53;;;0.53;;
60819;SDS011;46641;48.904;9.126;2024-02-14T13:32:04;1.65;;;0.40;;
60819;SDS011;46641;48.904;9.126;2024-02-14T13:36:57;0.70;;;0.57;;
60819;SDS011;46641;48.904;9.126;2024-02-14T13:41:48;1.00;;;0.60;;
60819;SDS011;46641;48.904;9.126;2024-02-14T13:46:40;0.47;;;0.45;;
60819;SDS011;46641;48.904;9.126;2024-02-14T13:51:34;0.60;;;0.60;;
60819;SDS011;46641;48.904;9.126;2024-02-14T13:56:24;0.40;;;0.40;;
60819;SDS011;46641;48.904;9.126;2024-02-14T14:01:15;0.43;;;0.43;;
60819;SDS011;46641;48.904;9.126;2024-02-14T14:06:05;0.30;;;0.30;;
60819;SDS011;46641;48.904;9.126;2024-02-14T14:10:57;0.87;;;0.50;;
60819;SDS011;46641;48.904;9.126;2024-02-14T14:15:48;1.65;;;0.63;;
60819;SDS011;46641;48.904;9.126;2024-02-14T14:20:38;0.20;;;0.20;;
60819;SDS011;46641;48.904;9.126;2024-02-14T14:25:28;0.60;;;0.60;;
60819;SDS011;46641;48.904;9.126;2024-02-14T14:30:20;0.63;;;0.63;;
60819;SDS011;46641;48.904;9.126;2024-02-14T14:35:10;0.60;;;0.50;;
60819;SDS011;46641;48.904;9.126;2024-02-14T14:40:00;0.40;;;0.40;;
60819;SDS011;46641;48.904;9.126;2024-02-14T14:44:51;1.30;;;0.47;;
60819;SDS011;46641;48.904;9.126;2024-02-14T14:49:42;0.57;;;0.57;;
60819;SDS011;46641;48.904;9.126;2024-02-14T14:54:32;1.43;;;0.63;;
60819;SDS011;46641;48.904;9.126;2024-02-14T14:59:22;1.20;;;0.82;;
60819;SDS011;46641;48.904;9.126;2024-02-14T15:04:13;1.47;;;0.90;;
60819;SDS011;46641;48.904;9.126;2024-02-14T15:09:03;1.23;;;1.13;;
60819;SDS011;46641;48.904;9.126;2024-02-14T15:13:54;1.03;;;0.80;;
60819;SDS011;46641;48.904;9.126;2024-02-14T15:18:44;1.03;;;0.80;;
60819;SDS011;46641;48.904;9.126;2024-02-14T15:23:36;2.07;;;1.40;;
60819;SDS011;46641;48.904;9.126;2024-02-14T15:28:26;1.43;;;0.80;;
60819;SDS011;46641;48.904;9.126;2024-02-14T15:33:16;2.03;;;0.90;;
60819;SDS011;46641;48.904;9.126;2024-02-14T15:38:12;1.53;;;0.73;;
60819;SDS011;46641;48.904;9.126;2024-02-14T15:43:04;1.23;;;1.00;;
60819;SDS011;46641;48.904;9.126;2024-02-14T15:47:55;1.80;;;0.70;;
60819;SDS011;46641;48.904;9.126;2024-02-14T15:52:47;1.77;;;0.90;;
60819;SDS011;46641;48.904;9.126;2024-02-14T15:57:37;5.30;;;4.23;;
60819;SDS011;46641;48.904;9.126;2024-02-14T16:02:30;6.30;;;4.50;;
60819;SDS011;46641;48.904;9.126;2024-02-14T16:07:20;6.63;;;3.80;;
60819;SDS011;46641;48.904;9.126;2024-02-14T16:12:10;2.90;;;1.58;;
60819;SDS011;46641;48.904;9.126;2024-02-14T16:17:01;3.53;;;1.63;;
60819;SDS011;46641;48.904;9.126;2024-02-14T16:21:51;2.13;;;1.90;;
60819;SDS011;46641;48.904;9.126;2024-02-14T16:26:41;3.55;;;2.80;;
60819;SDS011;46641;48.904;9.126;2024-02-14T16:31:32;3.97;;;3.63;;
60819;SDS011;46641;48.904;9.126;2024-02-14T16:36:22;2.50;;;2.30;;
60819;SDS011;46641;48.904;9.126;2024-02-14T16:41:12;2.22;;;1.67;;
60819;SDS011;46641;48.904;9.126;2024-02-14T16:46:02;2.28;;;2.08;;
60819;SDS011;46641;48.904;9.126;2024-02-14T16:50:53;1.63;;;1.37;;
60819;SDS011;46641;48.904;9.126;2024-02-14T16:55:43;1.50;;;0.93;;
60819;SDS011;46641;48.904;9.126;2024-02-14T17:00:34;1.70;;;1.60;;
60819;SDS011;46641;48.904;9.126;2024-02-14T17:05:24;3.83;;;1.52;;
60819;SDS011;46641;48.904;9.126;2024-02-14T17:10:14;1.60;;;1.30;;
60819;SDS011;46641;48.904;9.126;2024-02-14T17:15:05;1.40;;;1.30;;
60819;SDS011;46641;48.904;9.126;2024-02-14T17:19:56;2.57;;;1.17;;
60819;SDS011;46641;48.904;9.126;2024-02-14T17:24:46;2.87;;;1.80;;
60819;SDS011;46641;48.904;9.126;2024-02-14T17:29:37;2.80;;;2.37;;
60819;SDS011;46641;48.904;9.126;2024-02-14T17:34:27;4.15;;;2.97;;
60819;SDS011;46641;48.904;9.126;2024-02-14T17:39:21;4.37;;;3.60;;
60819;SDS011;46641;48.904;9.126;2024-02-14T17:44:12;3.67;;;2.90;;
60819;SDS011;46641;48.904;9.126;2024-02-14T17:49:03;5.30;;;3.70;;
60819;SDS011;46641;48.904;9.126;2024-02-14T17:53:54;3.87;;;3.33;;
60819;SDS011;46641;48.904;9.126;2024-02-14T17:58:45;4.03;;;2.50;;
60819;SDS011;46641;48.904;9.126;2024-02-14T18:03:35;2.20;;;2.00;;
60819;SDS011;46641;48.904;9.126;2024-02-14T18:08:25;6.53;;;2.97;;
60819;SDS011;46641;48.904;9.126;2024-02-14T18:13:16;5.93;;;3.50;;
60819;SDS011;46641;48.904;9.126;2024-02-14T18:18:07;7.13;;;5.20;;
60819;SDS011;46641;48.904;9.126;2024-02-14T18:22:57;9.53;;;8.53;;
60819;SDS011;46641;48.904;9.126;2024-02-14T18:27:47;4.70;;;3.37;;
60819;SDS011;46641;48.904;9.126;2024-02-14T18:32:37;1.57;;;1.47;;
60819;SDS011;46641;48.904;9.126;2024-02-14T18:37:28;2.00;;;1.80;;
60819;SDS011;46641;48.904;9.126;2024-02-14T18:42:19;1.90;;;1.70;;
60819;SDS011;46641;48.904;9.126;2024-02-14T18:47:09;1.73;;;1.20;;
60819;SDS011;46641;48.904;9.126;2024-02-14T18:52:00;1.60;;;1.50;;
60819;SDS011;46641;48.904;9.126;2024-02-14T18:56:50;3.90;;;3.22;;
60819;SDS011;46641;48.904;9.126;2024-02-14T19:01:40;3.53;;;2.57;;
60819;SDS011;46641;48.904;9.126;2024-02-14T19:06:30;2.50;;;2.00;;
60819;SDS011;46641;48.904;9.126;2024-02-14T19:11:24;2.33;;;2.13;;
60819;SDS011;46641;48.904;9.126;2024-02-14T19:16:14;2.13;;;1.93;;
60819;SDS011;46641;48.904;9.126;2024-02-14T19:21:05;2.47;;;2.03;;
60819;SDS011;46641;48.904;9.126;2024-02-14T19:25:55;2.27;;;2.07;;
60819;SDS011;46641;48.904;9.126;2024-02-14T19:30:46;2.30;;;2.10;;
60819;SDS011;46641;48.904;9.126;2024-02-14T19:35:37;2.73;;;2.53;;
60819;SDS011;46641;48.904;9.126;2024-02-14T19:40:27;3.50;;;2.27;;
60819;SDS011;46641;48.904;9.126;2024-02-14T19:45:17;3.30;;;2.63;;
60819;SDS011;46641;48.904;9.126;2024-02-14T19:50:08;5.40;;;2.77;;
60819;SDS011;46641;48.904;9.126;2024-02-14T19:55:01;4.27;;;3.13;;
60819;SDS011;46641;48.904;9.126;2024-02-14T19:59:54;4.37;;;3.10;;
60819;SDS011;46641;48.904;9.126;2024-02-14T20:04:44;3.85;;;2.53;;
60819;SDS011;46641;48.904;9.126;2024-02-14T20:09:34;2.85;;;2.55;;
60819;SDS011;46641;48.904;9.126;2024-02-14T20:14:25;4.17;;;2.57;;
60819;SDS011;46641;48.904;9.126;2024-02-14T20:19:15;3.63;;;3.33;;
60819;SDS011;46641;48.904;9.126;2024-02-14T20:24:05;4.47;;;4.07;;
60819;SDS011;46641;48.904;9.126;2024-02-14T20:28:55;10.05;;;7.45;;
60819;SDS011;46641;48.904;9.126;2024-02-14T20:33:46;5.07;;;4.57;;
60819;SDS011;46641;48.904;9.126;2024-02-14T20:38:36;13.50;;;8.77;;
60819;SDS011;46641;48.904;9.126;2024-02-14T20:43:28;12.23;;;8.37;;
60819;SDS011;46641;48.904;9.126;2024-02-14T20:48:18;16.67;;;12.23;;
60819;SDS011;46641;48.904;9.126;2024-02-14T20:53:09;37.60;;;26.73;;
60819;SDS011;46641;48.904;9.126;2024-02-14T20:57:59;47.25;;;32.10;;
60819;SDS011;46641;48.904;9.126;2024-02-14T21:02:50;11.73;;;9.83;;
60819;SDS011;46641;48.904;9.126;2024-02-14T21:07:40;9.50;;;8.70;;
60819;SDS011;46641;48.904;9.126;2024-02-14T21:12:31;5.83;;;5.27;;
60819;SDS011;46641;48.904;9.126;2024-02-14T21:17:22;6.43;;;5.83;;
60819;SDS011;46641;48.904;9.126;2024-02-14T21:22:12;16.20;;;14.60;;
60819;SDS011;46641;48.904;9.126;2024-02-14T21:27:02;10.65;;;9.63;;
60819;SDS011;46641;48.904;9.126;2024-02-14T21:31:53;14.97;;;13.47;;
60819;SDS011;46641;48.904;9.126;2024-02-14T21:36:44;7.23;;;6.03;;
60819;SDS011;46641;48.904;9.126;2024-02-14T21:41:35;9.80;;;8.80;;
60819;SDS011;46641;48.904;9.126;2024-02-14T21:46:29;9.17;;;7.30;;
60819;SDS011;46641;48.904;9.126;2024-02-14T21:51:19;21.93;;;19.57;;
60819;SDS011;46641;48.904;9.126;2024-02-14T21:56:10;18.07;;;16.30;;
60819;SDS011;46641;48.904;9.126;2024-02-14T22:01:00;9.60;;;8.57;;
60819;SDS011;46641;48.904;9.126;2024-02-14T22:05:51;8.70;;;8.00;;
60819;SDS011;46641;48.904;9.126;2024-02-14T22:10:42;9.47;;;8.57;;
60819;SDS011;46641;48.904;9.126;2024-02-14T22:15:32;7.87;;;6.83;;
60819;SDS011;46641;48.904;9.126;2024-02-14T22:20:23;3.00;;;2.70;;
60819;SDS011;46641;48.904;9.126;2024-02-14T22:25:14;6.70;;;6.03;;
60819;SDS011;46641;48.904;9.126;2024-02-14T22:30:04;5.03;;;4.47;;
60819;SDS011;46641;48.904;9.126;2024-02-14T22:34:57;5.13;;;4.30;;
60819;SDS011;46641;48.904;9.126;2024-02-14T22:39:48;4.50;;;4.10;;
60819;SDS011;46641;48.904;9.126;2024-02-14T22:44:38;2.33;;;2.10;;
60819;SDS011;46641;48.904;9.126;2024-02-14T22:49:28;3.80;;;2.40;;
60819;SDS011;46641;48.904;9.126;2024-02-14T22:54:19;3.57;;;2.60;;
60819;SDS011;46641;48.904;9.126;2024-02-14T22:59:10;2.20;;;2.10;;
60819;SDS011;46641;48.904;9.126;2024-02-14T23:04:00;3.00;;;2.10;;
60819;SDS011;46641;48.904;9.126;2024-02-14T23:08:51;2.15;;;1.95;;
60819;SDS011;46641;48.904;9.126;2024-02-14T23:13:41;3.00;;;2.10;;
60819;SDS011;46641;48.904;9.126;2024-02-14T23:18:31;2.10;;;1.90;;
60819;SDS011;46641;48.904;9.126;2024-02-14T23:23:22;3.47;;;2.27;;
60819;SDS011;46641;48.904;9.126;2024-02-14T23:28:13;4.07;;;2.20;;
60819;SDS011;46641;48.904;9.126;2024-02-14T23:33:04;3.87;;;2.40;;
60819;SDS011;46641;48.904;9.126;2024-02-14T23:37:54;2.17;;;1.90;;
60819;SDS011;46641;48.904;9.126;2024-02-14T23:42:46;3.00;;;2.13;;
60819;SDS011;46641;48.904;9.126;2024-02-14T23:47:36;2.87;;;1.87;;
60819;SDS011;46641;48.904;9.126;2024-02-14T23:52:27;2.20;;;2.00;;
60819;SDS011;46641;48.904;9.126;2024-02-14T23:57:18;3.03;;;2.00;;
